Time;durP1;ratioP1;P1;durP2;ratioP2;P2;SDS_P1;SDS_P2;PMS_P1;PMS_P2;Temp;Humidity;BMP_temperature;BMP_pressure;BME280_temperature;BME280_humidity;BME280_pressure;Samples;Min_cycle;Max_cycle;Signal;HPM_P1;HPM_P2
2022/09/22 00:00:49;;;;;;;10.28;7.30;;;;;;;9.57;78.94;100313.20;1717271;82;21150;-46
2022/09/22 00:03:16;;;;;;;11.55;7.90;;;;;;;9.52;79.02;100320.59;1677609;82;21055;-46
2022/09/22 00:05:43;;;;;;;9.93;6.65;;;;;;;9.45;79.15;100324.16;1729456;82;21130;-46
2022/09/22 00:08:09;;;;;;;11.25;6.97;;;;;;;9.41;79.17;100320.08;1725189;81;21139;-47
2022/09/22 00:10:36;;;;;;;10.28;7.00;;;;;;;9.43;79.05;100326.05;1723316;81;21095;-46
2022/09/22 00:13:02;;;;;;;11.22;7.67;;;;;;;9.42;79.06;100322.59;1729961;81;21144;-47
2022/09/22 00:15:29;;;;;;;14.13;7.85;;;;;;;9.37;79.17;100323.91;1728927;82;22303;-46
2022/09/22 00:17:56;;;;;;;10.45;6.85;;;;;;;9.28;79.37;100328.90;1724516;82;21388;-47
2022/09/22 00:20:22;;;;;;;11.53;7.42;;;;;;;9.25;79.48;100326.98;1723357;82;21106;-46
2022/09/22 00:22:50;;;;;;;10.20;6.90;;;;;;;9.25;79.44;100329.13;1722120;81;21514;-46
2022/09/22 00:25:17;;;;;;;10.70;7.33;;;;;;;9.22;79.47;100327.21;1721361;82;21154;-47
2022/09/22 00:27:44;;;;;;;8.85;6.53;;;;;;;9.18;79.62;100324.44;1723477;81;21066;-47
2022/09/22 00:30:12;;;;;;;10.85;7.12;;;;;;;9.11;79.94;100327.55;1727476;81;21112;-47
2022/09/22 00:32:39;;;;;;;12.40;7.78;;;;;;;9.11;79.95;100326.23;1727246;81;21021;-46
2022/09/22 00:35:07;;;;;;;12.70;7.50;;;;;;;9.13;79.92;100318.25;1728056;82;21141;-47
2022/09/22 00:37:34;;;;;;;11.28;7.50;;;;;;;9.15;79.92;100320.76;1728749;81;22102;-46
2022/09/22 00:40:01;;;;;;;11.00;7.62;;;;;;;9.12;80.09;100324.44;1730839;81;21020;-46
2022/09/22 00:42:28;;;;;;;13.32;7.00;;;;;;;9.09;80.23;100322.89;1728321;81;21621;-46
2022/09/22 00:44:54;;;;;;;9.40;6.85;;;;;;;9.07;80.18;100330.02;1727683;82;21081;-47
2022/09/22 00:47:40;;;;;;;11.50;7.72;;;;;;;9.09;80.02;100328.14;1729102;81;21050;-49
2022/09/22 00:50:14;;;;;;;9.75;7.67;;;;;;;9.10;79.90;100323.23;1725674;81;21148;-46
2022/09/22 00:52:48;;;;;;;;;;;;;;;9.06;79.99;100327.05;1731015;81;21093;-46
2022/09/22 00:55:29;;;;;;;10.50;7.37;;;;;;;8.99;80.05;100330.23;1729268;81;20206;-47
2022/09/22 00:57:55;;;;;;;10.98;7.05;;;;;;;8.95;80.09;100322.24;1723771;82;21024;-46
2022/09/22 01:00:22;;;;;;;10.93;7.53;;;;;;;8.95;79.99;100316.99;1724349;81;21609;-47
2022/09/22 01:02:50;;;;;;;11.63;7.45;;;;;;;8.96;80.00;100321.27;1730979;81;21062;-47
2022/09/22 01:05:17;;;;;;;9.35;7.08;;;;;;;8.90;80.07;100320.78;1723058;81;21090;-46
2022/09/22 01:07:46;;;;;;;12.63;7.45;;;;;;;8.87;80.15;100322.80;1725156;82;21157;-46
2022/09/22 01:10:14;;;;;;;9.25;6.33;;;;;;;8.84;80.12;100321.25;1724296;82;21501;-47
2022/09/22 01:12:46;;;;;;;9.00;6.80;;;;;;;8.87;79.93;100322.31;1725212;82;21116;-46
2022/09/22 01:15:27;;;;;;;9.98;7.35;;;;;;;8.88;79.82;100325.31;1724084;82;21237;-47
2022/09/22 01:18:18;;;;;;;11.68;6.30;;;;;;;8.84;79.86;100324.33;1721995;82;21039;-47
2022/09/22 01:21:10;;;;;;;12.03;6.92;;;;;;;8.77;80.03;100328.36;1729571;81;21594;-47
2022/09/22 01:24:01;;;;;;;12.93;6.30;;;;;;;8.76;80.05;100329.30;1721934;82;21010;-47
2022/09/22 01:27:12;;;;;;;11.88;6.85;;;;;;;8.77;79.83;100328.36;1724587;81;21546;-47
2022/09/22 01:29:53;;;;;;;9.40;6.85;;;;;;;8.77;80.00;100327.05;1725008;82;21069;-47
2022/09/22 01:32:50;;;;;;;12.90;7.12;;;;;;;8.71;80.29;100327.04;1719453;82;21073;-47
2022/09/22 01:35:33;;;;;;;8.28;4.22;;;;;;;8.67;80.51;100327.70;1727393;82;21072;-47
2022/09/22 01:38:35;;;;;;;9.80;7.00;;;;;;;8.70;80.53;100318.80;1731910;82;21061;-47
2022/09/22 01:41:19;;;;;;;14.65;7.28;;;;;;;8.70;80.53;100322.24;1723636;81;21556;-47
2022/09/22 01:43:53;;;;;;;8.83;6.10;;;;;;;8.66;80.81;100319.98;1723282;82;21637;-49
2022/09/22 01:46:41;;;;;;;8.55;6.47;;;;;;;8.60;80.94;100325.17;1727087;81;21581;-46
2022/09/22 01:49:09;;;;;;;10.48;6.60;;;;;;;8.62;80.83;100324.58;1724600;82;21060;-48
2022/09/22 01:51:41;;;;;;;10.60;6.75;;;;;;;8.66;80.76;100321.29;1731431;82;21127;-47
2022/09/22 01:54:15;;;;;;;8.75;6.42;;;;;;;8.67;80.88;100315.91;1706113;81;21035;-48
2022/09/22 01:56:43;;;;;;;13.25;6.62;;;;;;;8.68;81.21;100315.45;1727105;81;21148;-48
2022/09/22 01:59:09;;;;;;;8.63;6.20;;;;;;;8.69;81.25;100312.72;1733003;82;21570;-49
2022/09/22 02:01:40;;;;;;;8.70;6.03;;;;;;;8.74;81.02;100313.67;1732105;82;21213;-47
2022/09/22 02:04:10;;;;;;;9.23;6.33;;;;;;;8.80;80.76;100305.84;1736581;81;21110;-48
2022/09/22 02:06:55;;;;;;;9.73;6.55;;;;;;;8.86;80.68;100313.23;1733253;81;21016;-47
2022/09/22 02:09:23;;;;;;;8.80;6.40;;;;;;;8.86;80.58;100311.92;1732917;81;21750;-47
2022/09/22 02:11:50;;;;;;;9.23;6.22;;;;;;;8.81;80.55;100316.23;1736571;81;21067;-48
2022/09/22 02:17:31;;;;;;;12.20;7.75;;;;;;;8.95;80.16;100312.58;1785888;78;22720;-48
2022/09/22 02:19:58;;;;;;;9.30;6.58;;;;;;;9.03;79.60;100315.47;1691426;83;21049;-48
2022/09/22 02:22:24;;;;;;;10.60;6.80;;;;;;;9.01;79.53;100313.44;1711243;82;21314;-47
2022/09/22 02:24:51;;;;;;;10.23;7.10;;;;;;;8.97;79.67;100313.28;1686475;83;21030;-47
2022/09/22 02:27:26;;;;;;;8.83;6.75;;;;;;;8.97;79.73;100304.59;1699309;83;20969;-47
2022/09/22 02:29:56;;;;;;;;;;;;;;;9.02;79.63;100306.39;1702206;83;21134;-47
2022/09/22 02:32:23;;;;;;;9.50;6.55;;;;;;;9.05;79.52;100302.23;1697077;83;20152;-48
2022/09/22 02:34:49;;;;;;;10.32;7.10;;;;;;;9.01;79.65;100300.77;1698689;83;21107;-48
2022/09/22 02:37:36;;;;;;;10.00;6.42;;;;;;;8.98;79.78;100297.91;1699021;83;21061;-47
2022/09/22 02:40:38;;;;;;;8.65;6.12;;;;;;;8.98;79.92;100304.47;1698389;83;21138;-47
2022/09/22 02:43:31;;;;;;;8.50;6.08;;;;;;;9.05;79.76;100306.99;1663767;83;21058;-47
2022/09/22 02:46:07;;;;;;;9.25;6.47;;;;;;;9.07;79.58;100305.57;1685605;83;21089;-47
2022/09/22 02:48:44;;;;;;;7.37;3.30;;;;;;;9.04;79.81;100303.17;1700438;83;21139;-47
2022/09/22 02:51:11;;;;;;;8.98;6.67;;;;;;;8.99;79.75;100298.26;1700880;83;20997;-47
2022/09/22 02:53:37;;;;;;;7.78;6.10;;;;;;;8.99;79.59;100300.88;1632544;83;21037;-47
2022/09/22 02:56:04;;;;;;;10.43;6.78;;;;;;;9.01;79.49;100302.94;1691884;83;21510;-47
2022/09/22 02:58:30;;;;;;;8.25;5.90;;;;;;;9.03;79.61;100303.66;1698539;83;21071;-47
2022/09/22 03:00:57;;;;;;;10.05;6.47;;;;;;;9.04;79.75;100309.25;1691461;83;21178;-47
2022/09/22 03:03:23;;;;;;;10.03;6.70;;;;;;;9.01;79.62;100307.33;1704678;83;21661;-47
2022/09/22 03:05:50;;;;;;;12.82;6.58;;;;;;;8.97;79.47;100304.59;1716510;81;21101;-47
2022/09/22 03:08:16;;;;;;;8.75;6.25;;;;;;;8.99;79.29;100309.23;1686373;83;21097;-47
2022/09/22 03:10:43;;;;;;;8.85;6.28;;;;;;;8.99;79.28;100314.00;1702251;83;21556;-47
2022/09/22 03:13:10;;;;;;;8.80;6.25;;;;;;;8.93;79.32;100315.80;1690799;83;21221;-47
2022/09/22 03:15:36;;;;;;;10.03;6.33;;;;;;;8.87;79.45;100321.00;1698886;83;21041;-47
2022/09/22 03:18:03;;;;;;;7.55;5.60;;;;;;;8.83;79.50;100318.25;1745932;80;21554;-47
2022/09/22 03:20:29;;;;;;;8.78;6.08;;;;;;;8.88;79.41;100321.38;1746414;80;21372;-48
2022/09/22 03:22:56;;;;;;;13.30;6.10;;;;;;;8.89;79.39;100314.33;1739563;80;21074;-47
2022/09/22 03:25:22;;;;;;;11.38;7.10;;;;;;;8.85;79.51;100316.83;1740857;81;21140;-47
2022/09/22 03:27:49;;;;;;;8.83;6.15;;;;;;;8.81;79.67;100313.60;1744777;80;21434;-47
2022/09/22 03:30:15;;;;;;;8.65;5.72;;;;;;;8.80;79.73;100318.48;1746261;80;21007;-47
2022/09/22 03:32:42;;;;;;;9.40;6.25;;;;;;;8.84;79.53;100316.45;1742553;80;21082;-47
2022/09/22 03:35:08;;;;;;;9.33;5.85;;;;;;;8.85;79.57;100315.52;1744946;80;21114;-47
2022/09/22 03:37:35;;;;;;;8.60;5.78;;;;;;;8.83;79.75;100316.12;1742763;80;22125;-47
2022/09/22 03:40:03;;;;;;;10.18;6.08;;;;;;;8.79;79.96;100314.65;1743456;80;21079;-47
2022/09/22 03:42:29;;;;;;;8.25;5.60;;;;;;;8.78;80.00;100315.62;1725252;82;21106;-47
2022/09/22 03:44:56;;;;;;;8.40;5.92;;;;;;;8.81;79.82;100317.99;1742841;80;20994;-47
2022/09/22 03:47:22;;;;;;;8.85;7.20;;;;;;;8.83;79.79;100321.36;1741183;80;21063;-47
2022/09/22 03:49:49;;;;;;;8.53;5.92;;;;;;;8.83;79.91;100327.44;1744323;80;21054;-47
2022/09/22 03:52:15;;;;;;;8.05;5.53;;;;;;;8.77;79.80;100327.05;1738477;80;21106;-48
2022/09/22 03:54:42;;;;;;;8.05;5.28;;;;;;;8.76;79.73;100333.23;1728532;80;21063;-46
2022/09/22 03:57:10;;;;;;;8.53;6.50;;;;;;;8.76;79.57;100331.47;1727990;80;21494;-47
2022/09/22 03:59:37;;;;;;;9.48;5.97;;;;;;;8.78;79.56;100333.50;1749014;80;21331;-46
2022/09/22 04:02:03;;;;;;;10.13;6.53;;;;;;;8.77;79.70;100340.17;1741915;80;21127;-48
2022/09/22 04:04:30;;;;;;;10.82;6.72;;;;;;;8.76;79.89;100342.42;1743356;80;21133;-47
2022/09/22 04:06:56;;;;;;;9.78;6.45;;;;;;;8.78;79.89;100345.30;1744683;80;21081;-47
2022/09/22 04:09:23;;;;;;;8.08;6.10;;;;;;;8.83;79.66;100340.55;1741342;80;21569;-47
2022/09/22 04:11:51;;;;;;;9.38;6.20;;;;;;;8.87;79.61;100347.72;1745635;81;21036;-47
2022/09/22 04:14:18;;;;;;;8.73;6.03;;;;;;;8.85;79.79;100347.01;1745389;80;21070;-47
2022/09/22 04:16:44;;;;;;;9.75;5.80;;;;;;;8.84;79.84;100347.94;1741619;80;21071;-47
2022/09/22 04:19:11;;;;;;;9.83;5.90;;;;;;;8.85;79.76;100357.50;1738695;80;21051;-48
2022/09/22 04:21:39;;;;;;;12.07;6.33;;;;;;;8.87;79.61;100357.73;1738077;80;21056;-47
2022/09/22 04:24:10;;;;;;;7.20;5.50;;;;;;;8.91;79.60;100361.83;1736529;80;21027;-47
2022/09/22 04:26:34;;;;;;;11.80;5.62;;;;;;;8.89;79.65;100365.50;1737230;80;23311;-48
2022/09/22 04:29:01;;;;;;;7.97;5.40;;;;;;;8.85;79.72;100364.06;1734255;80;21070;-47
2022/09/22 04:31:27;;;;;;;9.15;5.62;;;;;;;8.84;79.76;100361.92;1737322;80;21043;-47
2022/09/22 04:33:54;;;;;;;9.33;6.10;;;;;;;8.90;79.69;100352.75;1737609;80;20997;-47
2022/09/22 04:36:20;;;;;;;8.25;5.83;;;;;;;8.95;79.69;100359.81;1719986;80;21039;-47
2022/09/22 04:38:47;;;;;;;9.28;5.97;;;;;;;8.97;79.86;100353.14;1730706;80;21219;-46
2022/09/22 04:41:13;;;;;;;8.53;5.58;;;;;;;8.94;79.74;100351.56;1723507;80;21051;-47
2022/09/22 04:43:39;;;;;;;10.63;6.35;;;;;;;8.94;79.71;100354.19;1736716;80;21055;-47
2022/09/22 04:46:06;;;;;;;9.80;5.75;;;;;;;9.02;79.69;100362.34;1729802;81;22461;-47
2022/09/22 04:48:32;;;;;;;12.33;7.03;;;;;;;9.07;79.66;100352.81;1733950;80;21036;-47
2022/09/22 04:50:59;;;;;;;10.23;6.92;;;;;;;9.11;79.87;100355.56;1715521;80;21112;-47
2022/09/22 04:53:25;;;;;;;10.80;7.90;;;;;;;9.13;79.76;100353.69;1731602;80;21058;-47
2022/09/22 04:55:53;;;;;;;12.13;7.70;;;;;;;9.15;79.48;100361.45;1737168;80;21421;-47
2022/09/22 04:58:19;;;;;;;11.93;8.20;;;;;;;9.15;79.13;100362.27;1736144;80;21177;-46
2022/09/22 05:00:46;;;;;;;12.47;8.33;;;;;;;9.16;79.09;100368.35;1739083;82;21078;-47
2022/09/22 05:03:13;;;;;;;17.75;11.85;;;;;;;9.13;79.30;100367.27;1736041;80;21221;-46
2022/09/22 05:05:40;;;;;;;16.73;12.10;;;;;;;9.08;79.57;100367.14;1734188;80;21086;-46
2022/09/22 05:08:09;;;;;;;13.08;8.88;;;;;;;9.10;79.67;100370.97;1723819;80;21094;-47
2022/09/22 05:10:36;;;;;;;12.35;8.23;;;;;;;9.14;79.37;100368.95;1731906;82;21001;-46
2022/09/22 05:13:04;;;;;;;13.72;9.58;;;;;;;9.19;79.54;100366.33;1736026;80;21107;-46
2022/09/22 05:15:33;;;;;;;16.07;10.40;;;;;;;9.21;79.53;100380.20;1738677;80;21499;-46
2022/09/22 05:17:59;;;;;;;12.98;9.43;;;;;;;9.19;79.61;100371.58;1729917;80;21082;-46
2022/09/22 05:20:26;;;;;;;15.18;8.78;;;;;;;9.21;79.47;100383.28;1737344;80;21015;-47
2022/09/22 05:22:53;;;;;;;16.35;11.55;;;;;;;9.25;79.30;100380.33;1738493;80;21013;-47
2022/09/22 05:25:20;;;;;;;11.45;9.25;;;;;;;9.30;79.30;100366.86;1738256;81;21541;-47
2022/09/22 05:27:53;;;;;;;21.17;14.87;;;;;;;9.33;79.46;100378.45;1736511;80;21116;-46
2022/09/22 05:30:22;;;;;;;11.85;8.43;;;;;;;9.33;79.43;100373.20;1740760;80;21059;-47
2022/09/22 05:32:49;;;;;;;12.98;9.75;;;;;;;9.41;79.36;100379.17;1739010;80;20973;-47
2022/09/22 05:35:18;;;;;;;12.53;8.73;;;;;;;9.51;79.18;100383.27;1737941;80;21055;-47
2022/09/22 05:37:46;;;;;;;14.80;9.58;;;;;;;9.53;78.87;100379.58;1737231;80;21048;-46
2022/09/22 05:40:13;;;;;;;12.85;8.95;;;;;;;9.52;79.04;100380.52;1734962;82;21156;-47
2022/09/22 05:42:43;;;;;;;11.63;8.83;;;;;;;9.49;79.25;100380.26;1730945;80;21125;-46
2022/09/22 05:45:10;;;;;;;14.07;9.25;;;;;;;9.51;79.21;100385.89;1735197;82;21629;-47
2022/09/22 05:47:36;;;;;;;12.60;8.90;;;;;;;9.58;79.01;100380.06;1735907;82;21121;-47
2022/09/22 05:50:04;;;;;;;13.43;9.95;;;;;;;9.61;78.87;100377.18;1732729;80;21070;-47
2022/09/22 05:52:30;;;;;;;14.35;9.75;;;;;;;9.60;78.81;100377.30;1736887;81;21077;-46
2022/09/22 05:54:57;;;;;;;13.78;10.18;;;;;;;9.57;78.82;100377.55;1735797;80;21059;-46
2022/09/22 05:57:26;;;;;;;13.85;9.33;;;;;;;9.60;78.89;100387.80;1738705;80;21094;-46
2022/09/22 05:59:53;;;;;;;15.38;11.75;;;;;;;9.66;78.61;100386.86;1737267;80;21070;-47
2022/09/22 06:02:21;;;;;;;17.00;10.88;;;;;;;9.70;78.68;100384.86;1738076;80;21106;-46
2022/09/22 06:04:47;;;;;;;17.25;11.43;;;;;;;9.70;78.92;100383.55;1737258;80;21185;-47
2022/09/22 06:07:14;;;;;;;15.32;10.68;;;;;;;9.70;78.98;100390.12;1733296;82;21035;-46
2022/09/22 06:09:40;;;;;;;15.05;9.95;;;;;;;9.72;78.88;100392.63;1732075;80;20932;-46
2022/09/22 06:12:10;;;;;;;16.75;11.18;;;;;;;9.74;78.49;100387.60;1735479;80;21039;-46
2022/09/22 06:14:38;;;;;;;22.22;12.23;;;;;;;9.74;78.34;100392.03;1728085;82;21031;-47
2022/09/22 06:17:09;;;;;;;16.23;11.83;;;;;;;9.72;78.49;100399.20;1729081;81;21181;-47
2022/09/22 06:19:34;;;;;;;12.82;10.18;;;;;;;9.66;78.56;100393.42;1729420;80;21063;-47
2022/09/22 06:22:01;;;;;;;15.00;10.93;;;;;;;9.68;78.63;100389.37;1721347;80;21078;-47
2022/09/22 06:24:28;;;;;;;15.83;11.18;;;;;;;9.70;78.45;100399.77;1732655;80;21293;-47
2022/09/22 06:26:55;;;;;;;21.95;12.78;;;;;;;9.70;78.55;100390.12;1738732;80;21091;-47
2022/09/22 06:29:21;;;;;;;19.30;11.20;;;;;;;9.70;78.58;100386.63;1733559;80;21137;-47
2022/09/22 06:31:48;;;;;;;13.75;10.48;;;;;;;9.73;78.90;100389.03;1735796;80;21602;-47
2022/09/22 06:34:16;;;;;;;16.40;11.35;;;;;;;9.83;78.93;100390.00;1731691;80;21110;-47
2022/09/22 06:36:44;;;;;;;16.17;10.70;;;;;;;9.94;78.42;100386.55;1725170;80;21046;-47
2022/09/22 06:39:11;;;;;;;15.98;10.80;;;;;;;9.97;78.18;100396.35;1728985;80;21075;-47
2022/09/22 06:41:38;;;;;;;16.27;11.08;;;;;;;10.03;78.26;100395.86;1731922;80;21372;-47
2022/09/22 06:44:06;;;;;;;19.00;12.63;;;;;;;10.04;77.95;100393.59;1733779;82;21016;-47
2022/09/22 06:46:34;;;;;;;19.45;10.82;;;;;;;10.11;77.53;100395.27;1724001;80;21499;-47
2022/09/22 06:49:01;;;;;;;13.88;9.58;;;;;;;10.18;77.39;100395.63;1734999;82;21062;-48
2022/09/22 06:51:31;;;;;;;13.72;9.45;;;;;;;10.25;77.39;100393.36;1732596;80;21086;-47
2022/09/22 06:54:00;;;;;;;12.78;10.05;;;;;;;10.25;76.68;100398.12;1732764;82;21128;-47
2022/09/22 06:56:28;;;;;;;12.15;8.70;;;;;;;10.22;76.78;100401.86;1737404;80;21059;-47
2022/09/22 06:58:55;;;;;;;12.25;8.98;;;;;;;10.25;76.69;100399.94;1733491;82;21051;-47
2022/09/22 07:01:22;;;;;;;14.55;10.55;;;;;;;10.33;76.62;100402.34;1734530;82;21044;-47
2022/09/22 07:03:50;;;;;;;15.72;9.80;;;;;;;10.43;76.01;100399.00;1735195;80;21121;-47
2022/09/22 07:06:17;;;;;;;13.68;10.68;;;;;;;10.48;76.17;100409.51;1738134;80;21133;-46
2022/09/22 07:08:47;;;;;;;12.13;8.98;;;;;;;10.53;75.93;100406.52;1727630;80;21111;-47
2022/09/22 07:11:16;;;;;;;12.25;9.05;;;;;;;10.58;75.37;100404.36;1739740;81;21083;-47
2022/09/22 07:13:44;;;;;;;14.40;10.25;;;;;;;10.77;76.02;100401.08;1731731;80;21107;-47
2022/09/22 07:16:16;;;;;;;13.75;9.38;;;;;;;10.96;74.58;100408.31;1730520;82;21672;-47
2022/09/22 07:18:48;;;;;;;11.18;8.90;;;;;;;11.09;73.98;100405.03;1746646;80;21129;-47
2022/09/22 07:21:25;;;;;;;15.55;9.63;;;;;;;11.15;73.73;100407.17;1748921;80;21109;-47
2022/09/22 07:23:54;;;;;;;11.48;8.75;;;;;;;11.18;73.75;100412.69;1750035;80;21054;-47
2022/09/22 07:26:29;;;;;;;10.15;7.60;;;;;;;11.29;73.17;100409.16;1741998;80;21129;-47
2022/09/22 07:29:00;;;;;;;11.38;8.30;;;;;;;11.42;72.29;100416.40;1750786;81;21078;-48
2022/09/22 07:31:29;;;;;;;11.57;8.80;;;;;;;11.42;71.46;100422.16;1749910;80;21511;-47
2022/09/22 07:33:58;;;;;;;12.82;8.60;;;;;;;11.32;71.35;100414.17;1750724;80;21070;-48
2022/09/22 07:36:26;;;;;;;11.25;8.15;;;;;;;11.28;71.81;100420.64;1749910;80;21532;-48
2022/09/22 07:38:54;;;;;;;23.05;9.98;;;;;;;11.27;71.97;100422.45;1747076;80;21034;-48
2022/09/22 07:41:26;;;;;;;15.25;8.48;;;;;;;11.29;71.77;100423.16;1749256;80;21666;-48
2022/09/22 07:46:44;;;;;;;13.22;8.13;;;;;;;11.32;71.17;100424.22;1752606;81;21070;-48
2022/09/22 07:49:11;;;;;;;12.18;7.90;;;;;;;11.31;71.42;100415.98;1747513;81;21023;-48
2022/09/22 07:51:37;;;;;;;10.13;7.17;;;;;;;11.32;71.67;100409.73;1751037;80;21093;-48
2022/09/22 07:54:07;;;;;;;11.43;7.25;;;;;;;11.37;71.07;100417.27;1750654;81;21533;-48
2022/09/22 07:56:38;;;;;;;9.38;6.17;;;;;;;11.46;71.05;100409.89;1750053;80;21208;-48
2022/09/22 07:59:11;;;;;;;9.48;6.15;;;;;;;11.56;70.22;100404.70;1748650;81;21070;-48
2022/09/22 08:01:38;;;;;;;9.15;6.42;;;;;;;11.65;69.49;100400.45;1741199;80;21399;-47
2022/09/22 08:04:05;;;;;;;9.25;7.22;;;;;;;11.67;68.79;100400.69;1752442;80;21502;-48
2022/09/22 08:06:33;;;;;;;9.15;6.20;;;;;;;11.67;68.87;100402.00;1746146;80;21093;-48
2022/09/22 08:09:02;;;;;;;8.15;6.00;;;;;;;11.65;69.04;100403.08;1746536;81;21991;-48
2022/09/22 08:11:30;;;;;;;8.88;5.60;;;;;;;11.66;68.72;100402.13;1751083;80;21046;-48
2022/09/22 08:13:59;;;;;;;9.48;5.65;;;;;;;11.74;68.36;100404.95;1750465;81;21121;-47
2022/09/22 08:16:29;;;;;;;8.90;5.53;;;;;;;11.76;68.33;100405.66;1746608;80;21212;-48
2022/09/22 08:18:58;;;;;;;9.28;5.47;;;;;;;11.80;68.11;100399.64;1748924;81;21055;-48
2022/09/22 08:21:34;;;;;;;8.78;5.50;;;;;;;11.84;67.92;100407.16;1749969;80;21214;-48
2022/09/22 08:24:06;;;;;;;7.60;4.95;;;;;;;11.84;67.35;100401.89;1750312;80;21051;-48
2022/09/22 08:26:35;;;;;;;7.67;4.97;;;;;;;11.84;67.60;100401.06;1753640;80;21046;-47
2022/09/22 08:29:02;;;;;;;8.28;4.90;;;;;;;11.93;67.11;100396.83;1747433;80;21054;-49
2022/09/22 08:31:29;;;;;;;8.83;5.05;;;;;;;12.00;67.38;100405.42;1743158;80;21129;-46
2022/09/22 08:33:56;;;;;;;8.28;5.00;;;;;;;12.03;66.95;100404.30;1747297;80;21252;-48
2022/09/22 08:36:26;;;;;;;9.58;5.03;;;;;;;12.06;67.00;100399.59;1746338;80;21059;-47
2022/09/22 08:38:54;;;;;;;6.28;4.25;;;;;;;12.11;67.15;100397.06;1742933;80;21052;-47
2022/09/22 08:41:39;;;;;;;6.30;3.98;;;;;;;12.19;66.88;100406.47;1748899;80;21038;-47
2022/09/22 08:44:14;;;;;;;6.37;4.33;;;;;;;12.25;66.60;100400.19;1741018;80;21133;-47
2022/09/22 08:46:43;;;;;;;7.70;4.50;;;;;;;12.39;66.57;100398.97;1750040;80;21426;-47
2022/09/22 08:52:24;;;;;;;6.80;4.20;;;;;;;12.49;66.15;100404.75;1748170;81;21117;-48
2022/09/22 08:54:50;;;;;;;8.08;4.67;;;;;;;12.57;65.81;100399.13;1748486;81;21026;-47
2022/09/22 08:57:41;;;;;;;6.62;4.08;;;;;;;12.65;65.87;100407.71;1747957;80;21121;-47
2022/09/22 09:00:16;;;;;;;8.30;4.60;;;;;;;12.62;65.18;100403.55;1750544;80;21957;-47
2022/09/22 09:03:39;;;;;;;8.78;3.98;;;;;;;12.54;65.08;100406.03;1752446;80;21069;-47
2022/09/22 09:06:11;;;;;;;6.33;4.30;;;;;;;12.58;65.09;100402.63;1748228;81;21747;-47
2022/09/22 09:09:19;;;;;;;6.53;3.90;;;;;;;12.58;65.15;100411.38;1750306;81;21070;-47
2022/09/22 09:12:04;;;;;;;7.37;4.37;;;;;;;12.58;64.91;100413.19;1751236;80;21134;-47
2022/09/22 09:14:56;;;;;;;8.70;4.95;;;;;;;12.58;64.91;100413.19;1744831;81;22024;-47
2022/09/22 09:17:29;;;;;;;6.85;4.10;;;;;;;12.52;65.38;100413.22;1750476;80;21039;-48
2022/09/22 09:20:10;;;;;;;7.55;4.80;;;;;;;12.42;65.77;100415.86;1745866;81;21011;-46
2022/09/22 09:22:40;;;;;;;6.92;4.60;;;;;;;12.39;65.86;100408.20;1748430;81;21141;-46
2022/09/22 09:25:22;;;;;;;7.90;4.53;;;;;;;12.44;65.67;100404.67;1752750;80;21545;-46
2022/09/22 09:27:56;;;;;;;7.95;5.28;;;;;;;12.50;66.16;100407.75;1747574;80;21163;-46
2022/09/22 09:30:23;;;;;;;7.58;4.53;;;;;;;12.55;66.27;100410.81;1748313;80;21081;-46
2022/09/22 09:32:59;;;;;;;8.38;4.90;;;;;;;12.57;65.62;100411.51;1747470;81;21023;-46
2022/09/22 09:35:47;;;;;;;7.87;5.12;;;;;;;12.56;65.07;100408.53;1748459;80;21082;-46
2022/09/22 09:38:16;;;;;;;6.80;5.00;;;;;;;12.53;65.29;100412.27;1750174;81;21142;-46
2022/09/22 09:40:53;;;;;;;7.50;4.37;;;;;;;12.56;65.53;100402.77;1748714;80;21931;-47
2022/09/22 09:43:21;;;;;;;9.88;4.92;;;;;;;12.71;65.68;100407.17;1752166;80;21553;-47
2022/09/22 09:46:27;;;;;;;6.37;4.42;;;;;;;12.87;65.28;100409.77;1745343;81;21624;-46
2022/09/22 09:48:59;;;;;;;7.50;4.30;;;;;;;12.97;64.41;100404.01;1749464;81;21464;-46
2022/09/22 09:51:27;;;;;;;9.15;3.98;;;;;;;13.08;63.71;100410.95;1750549;80;21020;-46
2022/09/22 09:53:53;;;;;;;7.08;4.53;;;;;;;13.09;62.97;100404.70;1743671;81;21517;-47
2022/09/22 09:56:27;;;;;;;6.55;4.00;;;;;;;13.09;63.37;100407.35;1736143;80;21051;-46
2022/09/22 10:01:52;;;;;;;6.75;3.90;;;;;;;13.00;61.84;100407.20;1751408;81;22571;-46
2022/09/22 10:04:32;;;;;;;6.15;3.12;;;;;;;12.89;62.67;100409.97;1751205;80;20987;-47
2022/09/22 10:07:23;;;;;;;6.45;3.35;;;;;;;12.85;62.71;100406.44;1742900;80;21419;-46
2022/09/22 10:09:50;;;;;;;7.03;3.65;;;;;;;12.89;62.76;100407.81;1747156;80;21086;-46
2022/09/22 10:12:29;;;;;;;6.47;3.55;;;;;;;12.89;61.87;100406.50;1745809;80;21047;-47
2022/09/22 10:14:58;;;;;;;7.22;3.45;;;;;;;12.86;62.46;100406.77;1750050;80;21137;-46
2022/09/22 10:17:45;;;;;;;5.45;3.22;;;;;;;12.81;62.09;100405.38;1743690;80;21069;-46
2022/09/22 10:20:20;;;;;;;6.35;3.25;;;;;;;12.77;62.32;100413.70;1737495;82;21700;-47
2022/09/22 10:22:47;;;;;;;5.78;3.35;;;;;;;12.74;62.68;100408.23;1736730;80;21055;-47
2022/09/22 10:25:31;;;;;;;5.47;3.12;;;;;;;12.77;62.98;100415.03;1743565;80;21039;-46
2022/09/22 10:28:14;;;;;;;5.67;2.80;;;;;;;12.80;62.95;100407.66;1738097;80;21553;-47
2022/09/22 10:30:42;;;;;;;4.40;2.55;;;;;;;12.91;62.92;100409.36;1741098;80;21046;-48
2022/09/22 10:33:20;;;;;;;6.62;3.40;;;;;;;12.99;62.15;100400.27;1733624;80;21143;-48
2022/09/22 10:36:07;;;;;;;6.60;3.35;;;;;;;13.01;62.41;100398.31;1737907;82;21597;-47
2022/09/22 10:38:37;;;;;;;4.87;2.55;;;;;;;13.03;62.57;100403.93;1746242;80;21023;-48
2022/09/22 10:41:16;;;;;;;4.33;2.33;;;;;;;13.07;62.07;100410.13;1734695;82;21031;-48
2022/09/22 10:44:17;;;;;;;5.42;2.72;;;;;;;13.06;61.58;100399.20;1726897;80;21067;-48
2022/09/22 10:47:26;;;;;;;4.83;2.52;;;;;;;13.05;61.94;100402.01;1720981;80;21260;-48
2022/09/22 10:50:16;;;;;;;5.47;2.20;;;;;;;13.04;61.81;100401.16;1734373;80;21510;-48
2022/09/22 10:53:01;;;;;;;5.10;2.08;;;;;;;13.06;62.17;100401.02;1725449;81;22314;-50
2022/09/22 10:55:55;;;;;;;4.47;2.12;;;;;;;13.15;61.91;100398.38;1735559;80;21011;-47
2022/09/22 10:58:45;;;;;;;5.83;2.08;;;;;;;13.20;61.72;100392.19;1741919;80;21046;-47
2022/09/22 11:01:33;;;;;;;6.30;2.47;;;;;;;13.29;61.59;100407.69;1744579;82;21122;-47
2022/09/22 11:04:20;;;;;;;6.55;2.12;;;;;;;13.36;61.23;100400.92;1744132;80;21067;-48
2022/09/22 11:13:35;;;;;;;4.67;2.00;;;;;;;13.16;62.27;100397.42;1741698;82;21098;-47
2022/09/22 11:16:26;;;;;;;4.50;2.67;;;;;;;12.99;63.20;100392.34;1747772;82;21206;-46
2022/09/22 11:19:14;;;;;;;4.92;2.27;;;;;;;12.82;63.88;100395.16;1742353;81;22271;-47
2022/09/22 11:22:24;;;;;;;4.90;2.77;;;;;;;12.78;64.70;100388.98;1738127;80;21012;-46
2022/09/22 11:25:32;;;;;;;5.53;2.83;;;;;;;12.90;65.09;100394.48;1716062;82;20996;-46
2022/09/22 11:28:46;;;;;;;4.95;2.40;;;;;;;13.09;64.73;100389.68;1734841;82;21549;-46
2022/09/22 11:31:47;;;;;;;5.03;2.52;;;;;;;13.23;64.24;100387.13;1735285;80;21823;-46
2022/09/22 11:34:59;;;;;;;5.60;2.90;;;;;;;13.30;63.92;100399.30;1731226;80;21080;-47
2022/09/22 11:37:52;;;;;;;5.00;2.98;;;;;;;13.29;63.17;100382.59;1719613;80;21578;-46
2022/09/22 11:40:47;;;;;;;4.90;2.50;;;;;;;13.30;63.21;100384.27;1729219;82;21114;-46
2022/09/22 11:43:50;;;;;;;4.85;2.58;;;;;;;13.38;63.14;100386.22;1734812;80;21116;-46
2022/09/22 11:46:45;;;;;;;5.83;2.80;;;;;;;13.56;62.91;100379.23;1736227;82;21526;-46
2022/09/22 11:49:42;;;;;;;5.25;2.52;;;;;;;13.75;62.50;100370.91;1728275;82;21589;-46
2022/09/22 11:52:20;;;;;;;5.12;2.70;;;;;;;13.86;61.25;100376.03;1737760;82;21133;-47
2022/09/22 11:55:32;;;;;;;4.45;2.72;;;;;;;13.86;60.14;100373.88;1735876;82;21153;-47
2022/09/22 11:58:07;;;;;;;5.08;2.72;;;;;;;13.85;60.53;100377.49;1728410;80;21081;-47
2022/09/22 12:00:39;;;;;;;6.22;2.90;;;;;;;13.81;61.06;100374.81;1721854;82;21140;-47
2022/09/22 12:03:09;;;;;;;4.97;3.12;;;;;;;13.80;61.38;100373.98;1736555;80;21403;-47
2022/09/22 12:05:44;;;;;;;5.20;2.90;;;;;;;13.80;61.26;100372.66;1736286;80;21063;-48
2022/09/22 12:08:19;;;;;;;5.73;3.40;;;;;;;13.81;61.10;100374.81;1737499;80;21078;-47
2022/09/22 12:10:49;;;;;;;5.33;3.33;;;;;;;13.76;61.35;100375.23;1734094;80;21050;-47
2022/09/22 12:13:22;;;;;;;5.72;2.72;;;;;;;13.75;61.49;100372.23;1733354;80;21146;-47